Atascadero, California
Current Conditions -  °F | °C
As of 2:53 AM on Tuesday 21 Oct 2014 (Local Time) from KPRB Reporting Station
Clear Clear  
Wind Chill: 56°   Ceiling: Unl
Heat Index: 56°   Visibility: 10mi
Dew Point: 51°   Wind: 10mph
Humidity: 84%   Direction: 310°NW
Pressure: 30.03"   Gusts: NA
Location:  35.49°N, 120.66°W
Report Text: KPRB 210953Z AUTO 31009KT 10SM CLR 13/11 A3003 RMK AO2 SLP164 T01330106 TSNO
Loading
Personal Weather Stations






























Interactive Weather Map
Tropical Storm Tracking
New forecast layout! Learn more

10-Day Weather Forecast

Advertisements
Track Severe Weather on mobile